Terminal Aerodrome Forecast
Issued by NWS Sioux Falls, SD

Home | Current Version | Previous Version | Graphics & Text | Print | Product List | Glossary Off
Versions: 1 2 3 4 5 6 7 8 9 10 11

786
FTUS43 KFSD 251130
TAFFSD
TAF
KFSD 251130Z 2512/2612 VRB03KT P6SM FEW250
     FM251700 19006KT P6SM SKC
     FM260800 17008KT P6SM SCT100=

USA.gov is the U.S. government's official web portal to all federal, state and local government web resources and services.